Terminal Aerodrome Forecast
Issued by NWS

Home | Current Version | Previous Version | Text Only | Print | Product List | Glossary On
Versions: 1 2 3 4 5 6 7 8 9 10 11 12 13 14 15 16 17 18 19 20 21 22 23 24 25 26 27 28 29 30 31 32 33 34 35 36 37
050
FTUS44 KHGX 101735
TAFSGR
TAF
KSGR 101735Z 1018/1118 08008KT P6SM OVC060
     FM102000 12009KT P6SM BKN040
     FM110500 13006KT P6SM SCT025 BKN035
     FM110900 15005KT P6SM BKN025
      TEMPO 1113/1115 BKN015 OVC030
     FM111500 17010KT P6SM OVC020=

USA.gov is the U.S. government's official web portal to all federal, state and local government web resources and services.